sensor_id;sensor_type;location;lat;lon;timestamp;P1;durP1;ratioP1;P2;durP2;ratioP2
32295;SDS011;18781;51.550;5.418;2022-08-19T00:00:13;13.40;;;12.02;;
32295;SDS011;18781;51.550;5.418;2022-08-19T00:02:39;16.77;;;12.20;;
32295;SDS011;18781;51.550;5.418;2022-08-19T00:05:06;15.75;;;12.38;;
32295;SDS011;18781;51.550;5.418;2022-08-19T00:07:33;12.70;;;11.30;;
32295;SDS011;18781;51.550;5.418;2022-08-19T00:09:59;17.75;;;12.23;;
32295;SDS011;18781;51.550;5.418;2022-08-19T00:12:24;16.50;;;11.65;;
32295;SDS011;18781;51.550;5.418;2022-08-19T00:14:51;14.77;;;11.55;;
32295;SDS011;18781;51.550;5.418;2022-08-19T00:17:17;16.83;;;11.93;;
32295;SDS011;18781;51.550;5.418;2022-08-19T00:19:43;15.02;;;12.18;;
32295;SDS011;18781;51.550;5.418;2022-08-19T00:22:09;18.75;;;13.18;;
32295;SDS011;18781;51.550;5.418;2022-08-19T00:24:35;15.32;;;13.30;;
32295;SDS011;18781;51.550;5.418;2022-08-19T00:27:02;14.40;;;11.98;;
32295;SDS011;18781;51.550;5.418;2022-08-19T00:29:28;17.17;;;13.15;;
32295;SDS011;18781;51.550;5.418;2022-08-19T00:31:53;18.70;;;13.13;;
32295;SDS011;18781;51.550;5.418;2022-08-19T00:34:21;19.27;;;13.00;;
32295;SDS011;18781;51.550;5.418;2022-08-19T00:36:48;14.77;;;11.88;;
32295;SDS011;18781;51.550;5.418;2022-08-19T00:39:14;15.38;;;11.27;;
32295;SDS011;18781;51.550;5.418;2022-08-19T00:41:41;13.10;;;11.38;;
32295;SDS011;18781;51.550;5.418;2022-08-19T00:44:12;14.63;;;12.07;;
32295;SDS011;18781;51.550;5.418;2022-08-19T00:46:42;15.38;;;13.77;;
32295;SDS011;18781;51.550;5.418;2022-08-19T00:49:11;17.67;;;13.65;;
32295;SDS011;18781;51.550;5.418;2022-08-19T00:51:39;18.25;;;13.90;;
32295;SDS011;18781;51.550;5.418;2022-08-19T00:54:07;16.67;;;13.55;;
32295;SDS011;18781;51.550;5.418;2022-08-19T00:56:34;16.27;;;13.15;;
32295;SDS011;18781;51.550;5.418;2022-08-19T00:59:01;16.08;;;13.68;;
32295;SDS011;18781;51.550;5.418;2022-08-19T01:01:33;25.02;;;15.00;;
32295;SDS011;18781;51.550;5.418;2022-08-19T01:03:59;17.00;;;14.18;;
32295;SDS011;18781;51.550;5.418;2022-08-19T01:06:25;19.73;;;15.75;;
32295;SDS011;18781;51.550;5.418;2022-08-19T01:08:51;20.10;;;17.67;;
32295;SDS011;18781;51.550;5.418;2022-08-19T01:11:16;19.95;;;16.80;;
32295;SDS011;18781;51.550;5.418;2022-08-19T01:13:42;23.55;;;18.38;;
32295;SDS011;18781;51.550;5.418;2022-08-19T01:16:09;27.00;;;20.48;;
32295;SDS011;18781;51.550;5.418;2022-08-19T01:18:36;24.05;;;20.17;;
32295;SDS011;18781;51.550;5.418;2022-08-19T01:21:08;22.77;;;18.92;;
32295;SDS011;18781;51.550;5.418;2022-08-19T01:23:40;21.58;;;18.95;;
32295;SDS011;18781;51.550;5.418;2022-08-19T01:26:16;22.60;;;19.35;;
32295;SDS011;18781;51.550;5.418;2022-08-19T01:28:46;23.08;;;18.70;;
32295;SDS011;18781;51.550;5.418;2022-08-19T01:31:18;23.83;;;19.87;;
32295;SDS011;18781;51.550;5.418;2022-08-19T01:33:46;25.17;;;20.33;;
32295;SDS011;18781;51.550;5.418;2022-08-19T01:36:14;25.67;;;19.25;;
32295;SDS011;18781;51.550;5.418;2022-08-19T01:38:48;24.58;;;18.05;;
32295;SDS011;18781;51.550;5.418;2022-08-19T01:41:14;21.90;;;16.35;;
32295;SDS011;18781;51.550;5.418;2022-08-19T01:43:41;23.02;;;16.10;;
32295;SDS011;18781;51.550;5.418;2022-08-19T01:46:07;24.77;;;17.90;;
32295;SDS011;18781;51.550;5.418;2022-08-19T01:48:37;25.40;;;18.92;;
32295;SDS011;18781;51.550;5.418;2022-08-19T01:51:06;21.88;;;18.30;;
32295;SDS011;18781;51.550;5.418;2022-08-19T01:53:32;23.27;;;18.73;;
32295;SDS011;18781;51.550;5.418;2022-08-19T01:55:58;24.48;;;19.42;;
32295;SDS011;18781;51.550;5.418;2022-08-19T01:58:27;25.63;;;19.90;;
32295;SDS011;18781;51.550;5.418;2022-08-19T02:00:57;24.92;;;20.58;;
32295;SDS011;18781;51.550;5.418;2022-08-19T02:03:23;25.20;;;20.20;;
32295;SDS011;18781;51.550;5.418;2022-08-19T02:05:53;29.88;;;21.95;;
32295;SDS011;18781;51.550;5.418;2022-08-19T02:08:20;28.20;;;23.10;;
32295;SDS011;18781;51.550;5.418;2022-08-19T02:10:46;27.85;;;23.77;;
32295;SDS011;18781;51.550;5.418;2022-08-19T02:13:12;28.83;;;23.38;;
32295;SDS011;18781;51.550;5.418;2022-08-19T02:15:38;31.10;;;24.27;;
32295;SDS011;18781;51.550;5.418;2022-08-19T02:18:04;30.63;;;23.05;;
32295;SDS011;18781;51.550;5.418;2022-08-19T02:20:30;28.92;;;22.80;;
32295;SDS011;18781;51.550;5.418;2022-08-19T02:22:56;30.48;;;24.00;;
32295;SDS011;18781;51.550;5.418;2022-08-19T02:25:21;32.70;;;25.58;;
32295;SDS011;18781;51.550;5.418;2022-08-19T02:27:47;32.95;;;27.10;;
32295;SDS011;18781;51.550;5.418;2022-08-19T02:30:17;32.10;;;26.15;;
32295;SDS011;18781;51.550;5.418;2022-08-19T02:32:44;39.45;;;27.10;;
32295;SDS011;18781;51.550;5.418;2022-08-19T02:35:09;33.50;;;26.05;;
32295;SDS011;18781;51.550;5.418;2022-08-19T02:37:35;36.97;;;26.52;;
32295;SDS011;18781;51.550;5.418;2022-08-19T02:40:20;33.20;;;26.35;;
32295;SDS011;18781;51.550;5.418;2022-08-19T02:42:46;38.13;;;27.67;;
32295;SDS011;18781;51.550;5.418;2022-08-19T02:45:12;35.50;;;28.42;;
32295;SDS011;18781;51.550;5.418;2022-08-19T02:47:38;40.15;;;28.92;;
32295;SDS011;18781;51.550;5.418;2022-08-19T02:50:05;38.08;;;28.75;;
32295;SDS011;18781;51.550;5.418;2022-08-19T02:52:31;37.55;;;27.33;;
32295;SDS011;18781;51.550;5.418;2022-08-19T02:54:58;40.28;;;29.48;;
32295;SDS011;18781;51.550;5.418;2022-08-19T02:57:24;33.50;;;27.08;;
32295;SDS011;18781;51.550;5.418;2022-08-19T02:59:49;37.70;;;28.08;;
32295;SDS011;18781;51.550;5.418;2022-08-19T03:02:15;34.67;;;27.55;;
32295;SDS011;18781;51.550;5.418;2022-08-19T03:04:41;34.25;;;28.08;;
32295;SDS011;18781;51.550;5.418;2022-08-19T03:07:07;38.90;;;29.27;;
32295;SDS011;18781;51.550;5.418;2022-08-19T03:09:35;40.20;;;28.77;;
32295;SDS011;18781;51.550;5.418;2022-08-19T03:12:02;40.80;;;28.73;;
32295;SDS011;18781;51.550;5.418;2022-08-19T03:14:30;38.55;;;28.75;;
32295;SDS011;18781;51.550;5.418;2022-08-19T03:16:56;42.28;;;30.90;;
32295;SDS011;18781;51.550;5.418;2022-08-19T03:19:22;36.42;;;29.15;;
32295;SDS011;18781;51.550;5.418;2022-08-19T03:21:49;39.35;;;30.25;;
32295;SDS011;18781;51.550;5.418;2022-08-19T03:24:15;39.00;;;29.92;;
32295;SDS011;18781;51.550;5.418;2022-08-19T03:26:49;37.30;;;29.85;;
32295;SDS011;18781;51.550;5.418;2022-08-19T03:29:19;38.53;;;30.70;;
32295;SDS011;18781;51.550;5.418;2022-08-19T03:31:45;43.33;;;32.35;;
32295;SDS011;18781;51.550;5.418;2022-08-19T03:34:16;44.40;;;33.60;;
32295;SDS011;18781;51.550;5.418;2022-08-19T03:36:56;44.35;;;32.30;;
32295;SDS011;18781;51.550;5.418;2022-08-19T03:39:25;45.30;;;34.42;;
32295;SDS011;18781;51.550;5.418;2022-08-19T03:41:52;43.72;;;34.30;;
32295;SDS011;18781;51.550;5.418;2022-08-19T03:44:22;50.67;;;36.35;;
32295;SDS011;18781;51.550;5.418;2022-08-19T03:46:49;46.53;;;36.60;;
32295;SDS011;18781;51.550;5.418;2022-08-19T03:49:18;51.42;;;36.17;;
32295;SDS011;18781;51.550;5.418;2022-08-19T03:51:45;50.78;;;36.33;;
32295;SDS011;18781;51.550;5.418;2022-08-19T03:54:12;45.63;;;34.58;;
32295;SDS011;18781;51.550;5.418;2022-08-19T03:56:40;48.50;;;37.42;;
32295;SDS011;18781;51.550;5.418;2022-08-19T03:59:08;49.38;;;37.63;;
32295;SDS011;18781;51.550;5.418;2022-08-19T04:01:36;54.87;;;39.60;;
32295;SDS011;18781;51.550;5.418;2022-08-19T04:04:02;50.03;;;38.90;;
32295;SDS011;18781;51.550;5.418;2022-08-19T04:06:29;54.55;;;41.20;;
32295;SDS011;18781;51.550;5.418;2022-08-19T04:09:00;59.33;;;43.67;;
32295;SDS011;18781;51.550;5.418;2022-08-19T04:11:30;59.80;;;43.33;;
32295;SDS011;18781;51.550;5.418;2022-08-19T04:14:01;56.97;;;43.55;;
32295;SDS011;18781;51.550;5.418;2022-08-19T04:16:27;60.65;;;43.53;;
32295;SDS011;18781;51.550;5.418;2022-08-19T04:18:54;56.53;;;42.35;;
32295;SDS011;18781;51.550;5.418;2022-08-19T04:21:22;55.97;;;41.08;;
32295;SDS011;18781;51.550;5.418;2022-08-19T04:23:50;58.78;;;43.72;;
32295;SDS011;18781;51.550;5.418;2022-08-19T04:26:19;59.00;;;42.17;;
32295;SDS011;18781;51.550;5.418;2022-08-19T04:28:47;52.65;;;40.33;;
32295;SDS011;18781;51.550;5.418;2022-08-19T04:31:16;60.72;;;42.05;;
32295;SDS011;18781;51.550;5.418;2022-08-19T04:33:44;59.22;;;43.20;;
32295;SDS011;18781;51.550;5.418;2022-08-19T04:36:17;53.88;;;40.10;;
32295;SDS011;18781;51.550;5.418;2022-08-19T04:38:45;56.00;;;41.65;;
32295;SDS011;18781;51.550;5.418;2022-08-19T04:41:11;57.00;;;40.65;;
32295;SDS011;18781;51.550;5.418;2022-08-19T04:43:56;54.03;;;41.72;;
32295;SDS011;18781;51.550;5.418;2022-08-19T04:46:22;57.70;;;42.58;;
32295;SDS011;18781;51.550;5.418;2022-08-19T04:48:47;56.97;;;42.05;;
32295;SDS011;18781;51.550;5.418;2022-08-19T04:51:13;60.75;;;42.45;;
32295;SDS011;18781;51.550;5.418;2022-08-19T04:53:40;58.55;;;41.05;;
32295;SDS011;18781;51.550;5.418;2022-08-19T04:58:34;52.80;;;39.67;;
32295;SDS011;18781;51.550;5.418;2022-08-19T05:01:00;59.72;;;41.55;;
32295;SDS011;18781;51.550;5.418;2022-08-19T05:03:26;57.80;;;40.15;;
32295;SDS011;18781;51.550;5.418;2022-08-19T05:05:56;53.45;;;40.92;;
32295;SDS011;18781;51.550;5.418;2022-08-19T05:08:21;59.20;;;41.97;;
32295;SDS011;18781;51.550;5.418;2022-08-19T05:10:48;55.95;;;40.45;;
32295;SDS011;18781;51.550;5.418;2022-08-19T05:13:16;59.38;;;39.55;;
32295;SDS011;18781;51.550;5.418;2022-08-19T05:15:44;58.78;;;41.50;;
32295;SDS011;18781;51.550;5.418;2022-08-19T05:18:20;56.38;;;42.40;;
32295;SDS011;18781;51.550;5.418;2022-08-19T05:21:12;62.45;;;44.65;;
32295;SDS011;18781;51.550;5.418;2022-08-19T05:23:58;60.30;;;44.65;;
32295;SDS011;18781;51.550;5.418;2022-08-19T05:26:24;62.67;;;44.47;;
32295;SDS011;18781;51.550;5.418;2022-08-19T05:28:51;69.00;;;47.10;;
32295;SDS011;18781;51.550;5.418;2022-08-19T05:31:17;62.40;;;46.05;;
32295;SDS011;18781;51.550;5.418;2022-08-19T05:33:43;68.63;;;48.40;;
32295;SDS011;18781;51.550;5.418;2022-08-19T05:36:09;67.80;;;48.13;;
32295;SDS011;18781;51.550;5.418;2022-08-19T05:38:35;71.80;;;49.70;;
32295;SDS011;18781;51.550;5.418;2022-08-19T05:41:01;76.22;;;51.08;;
32295;SDS011;18781;51.550;5.418;2022-08-19T05:43:34;75.70;;;52.90;;
32295;SDS011;18781;51.550;5.418;2022-08-19T05:46:00;75.13;;;51.70;;
32295;SDS011;18781;51.550;5.418;2022-08-19T05:48:26;81.03;;;55.83;;
32295;SDS011;18781;51.550;5.418;2022-08-19T05:50:52;85.88;;;58.72;;
32295;SDS011;18781;51.550;5.418;2022-08-19T05:53:18;84.50;;;57.22;;
32295;SDS011;18781;51.550;5.418;2022-08-19T05:55:43;83.88;;;57.45;;
32295;SDS011;18781;51.550;5.418;2022-08-19T05:58:09;85.00;;;57.15;;
32295;SDS011;18781;51.550;5.418;2022-08-19T06:00:36;82.13;;;54.97;;
32295;SDS011;18781;51.550;5.418;2022-08-19T06:03:02;89.07;;;57.95;;
32295;SDS011;18781;51.550;5.418;2022-08-19T06:05:31;89.82;;;60.00;;
32295;SDS011;18781;51.550;5.418;2022-08-19T06:07:57;83.50;;;56.83;;
32295;SDS011;18781;51.550;5.418;2022-08-19T06:10:23;94.53;;;59.83;;
32295;SDS011;18781;51.550;5.418;2022-08-19T06:12:51;90.90;;;61.03;;
32295;SDS011;18781;51.550;5.418;2022-08-19T06:15:16;93.32;;;60.85;;
32295;SDS011;18781;51.550;5.418;2022-08-19T06:17:42;92.53;;;60.75;;
32295;SDS011;18781;51.550;5.418;2022-08-19T06:20:11;90.22;;;62.67;;
32295;SDS011;18781;51.550;5.418;2022-08-19T06:22:43;93.47;;;61.15;;
32295;SDS011;18781;51.550;5.418;2022-08-19T06:25:11;89.45;;;59.95;;
32295;SDS011;18781;51.550;5.418;2022-08-19T06:27:38;98.22;;;60.33;;
32295;SDS011;18781;51.550;5.418;2022-08-19T06:30:05;90.95;;;59.15;;
32295;SDS011;18781;51.550;5.418;2022-08-19T06:32:31;100.80;;;62.92;;
32295;SDS011;18781;51.550;5.418;2022-08-19T06:34:56;90.32;;;58.85;;
32295;SDS011;18781;51.550;5.418;2022-08-19T06:37:22;93.13;;;60.92;;
32295;SDS011;18781;51.550;5.418;2022-08-19T06:39:48;95.05;;;59.72;;
32295;SDS011;18781;51.550;5.418;2022-08-19T06:42:15;93.68;;;58.08;;
32295;SDS011;18781;51.550;5.418;2022-08-19T06:44:44;91.43;;;57.90;;
32295;SDS011;18781;51.550;5.418;2022-08-19T06:47:15;91.78;;;57.75;;
32295;SDS011;18781;51.550;5.418;2022-08-19T06:49:42;88.15;;;56.03;;
32295;SDS011;18781;51.550;5.418;2022-08-19T06:52:08;87.80;;;55.80;;
32295;SDS011;18781;51.550;5.418;2022-08-19T06:57:04;81.28;;;51.92;;
32295;SDS011;18781;51.550;5.418;2022-08-19T06:59:31;77.75;;;52.28;;
32295;SDS011;18781;51.550;5.418;2022-08-19T07:01:58;76.55;;;50.95;;
32295;SDS011;18781;51.550;5.418;2022-08-19T07:04:27;77.57;;;53.05;;
32295;SDS011;18781;51.550;5.418;2022-08-19T07:07:01;82.30;;;50.53;;
32295;SDS011;18781;51.550;5.418;2022-08-19T07:09:31;80.75;;;50.63;;
32295;SDS011;18781;51.550;5.418;2022-08-19T07:11:56;81.68;;;50.92;;
32295;SDS011;18781;51.550;5.418;2022-08-19T07:14:23;76.15;;;49.90;;
32295;SDS011;18781;51.550;5.418;2022-08-19T07:16:51;70.72;;;48.63;;
32295;SDS011;18781;51.550;5.418;2022-08-19T07:19:20;79.13;;;51.92;;
32295;SDS011;18781;51.550;5.418;2022-08-19T07:21:47;79.60;;;50.58;;
32295;SDS011;18781;51.550;5.418;2022-08-19T07:24:14;85.45;;;53.40;;
32295;SDS011;18781;51.550;5.418;2022-08-19T07:26:41;82.53;;;52.85;;
32295;SDS011;18781;51.550;5.418;2022-08-19T07:29:07;84.22;;;52.75;;
32295;SDS011;18781;51.550;5.418;2022-08-19T07:31:33;83.00;;;51.75;;
32295;SDS011;18781;51.550;5.418;2022-08-19T07:34:02;88.07;;;55.45;;
32295;SDS011;18781;51.550;5.418;2022-08-19T07:36:33;88.35;;;56.53;;
32295;SDS011;18781;51.550;5.418;2022-08-19T07:39:01;85.40;;;55.60;;
32295;SDS011;18781;51.550;5.418;2022-08-19T07:41:33;86.65;;;55.67;;
32295;SDS011;18781;51.550;5.418;2022-08-19T07:46:30;79.80;;;51.53;;
32295;SDS011;18781;51.550;5.418;2022-08-19T07:49:00;83.47;;;54.38;;
32295;SDS011;18781;51.550;5.418;2022-08-19T07:51:27;84.88;;;53.25;;
32295;SDS011;18781;51.550;5.418;2022-08-19T07:53:53;82.53;;;53.33;;
32295;SDS011;18781;51.550;5.418;2022-08-19T07:56:19;90.55;;;53.05;;
32295;SDS011;18781;51.550;5.418;2022-08-19T07:58:47;90.65;;;53.25;;
32295;SDS011;18781;51.550;5.418;2022-08-19T08:01:15;85.53;;;54.00;;
32295;SDS011;18781;51.550;5.418;2022-08-19T08:03:47;82.07;;;53.28;;
32295;SDS011;18781;51.550;5.418;2022-08-19T08:06:32;87.10;;;54.38;;
32295;SDS011;18781;51.550;5.418;2022-08-19T08:09:18;89.53;;;56.88;;
32295;SDS011;18781;51.550;5.418;2022-08-19T08:11:49;89.10;;;57.08;;
32295;SDS011;18781;51.550;5.418;2022-08-19T08:14:16;92.13;;;59.17;;
32295;SDS011;18781;51.550;5.418;2022-08-19T08:16:47;88.97;;;58.42;;
32295;SDS011;18781;51.550;5.418;2022-08-19T08:19:15;96.38;;;59.20;;
32295;SDS011;18781;51.550;5.418;2022-08-19T08:21:44;93.53;;;57.33;;
32295;SDS011;18781;51.550;5.418;2022-08-19T08:24:09;91.57;;;58.30;;
32295;SDS011;18781;51.550;5.418;2022-08-19T08:26:36;90.10;;;62.47;;
32295;SDS011;18781;51.550;5.418;2022-08-19T08:29:02;89.28;;;60.83;;
32295;SDS011;18781;51.550;5.418;2022-08-19T08:31:28;89.03;;;60.63;;
32295;SDS011;18781;51.550;5.418;2022-08-19T08:33:53;90.95;;;59.75;;
32295;SDS011;18781;51.550;5.418;2022-08-19T08:36:19;87.78;;;59.53;;
32295;SDS011;18781;51.550;5.418;2022-08-19T08:38:46;88.68;;;57.85;;
32295;SDS011;18781;51.550;5.418;2022-08-19T08:41:21;81.20;;;53.60;;
32295;SDS011;18781;51.550;5.418;2022-08-19T08:44:00;79.93;;;51.75;;
32295;SDS011;18781;51.550;5.418;2022-08-19T08:46:44;76.45;;;50.35;;
32295;SDS011;18781;51.550;5.418;2022-08-19T08:49:24;76.00;;;52.38;;
32295;SDS011;18781;51.550;5.418;2022-08-19T08:52:10;78.22;;;49.97;;
32295;SDS011;18781;51.550;5.418;2022-08-19T08:54:44;75.20;;;50.35;;
32295;SDS011;18781;51.550;5.418;2022-08-19T08:57:30;76.32;;;52.78;;
32295;SDS011;18781;51.550;5.418;2022-08-19T08:59:58;70.97;;;50.78;;
32295;SDS011;18781;51.550;5.418;2022-08-19T09:02:30;72.57;;;50.90;;
32295;SDS011;18781;51.550;5.418;2022-08-19T09:04:55;74.85;;;51.28;;
32295;SDS011;18781;51.550;5.418;2022-08-19T09:10:00;79.95;;;54.55;;
32295;SDS011;18781;51.550;5.418;2022-08-19T09:12:52;84.55;;;53.83;;
32295;SDS011;18781;51.550;5.418;2022-08-19T09:15:43;79.85;;;53.53;;
32295;SDS011;18781;51.550;5.418;2022-08-19T09:18:13;75.60;;;51.65;;
32295;SDS011;18781;51.550;5.418;2022-08-19T09:20:39;71.97;;;50.92;;
32295;SDS011;18781;51.550;5.418;2022-08-19T09:23:04;67.90;;;50.55;;
32295;SDS011;18781;51.550;5.418;2022-08-19T09:25:30;73.95;;;50.03;;
32295;SDS011;18781;51.550;5.418;2022-08-19T09:27:59;70.50;;;47.42;;
32295;SDS011;18781;51.550;5.418;2022-08-19T09:30:30;69.85;;;47.88;;
32295;SDS011;18781;51.550;5.418;2022-08-19T09:33:00;69.03;;;46.22;;
32295;SDS011;18781;51.550;5.418;2022-08-19T09:35:26;71.07;;;48.45;;
32295;SDS011;18781;51.550;5.418;2022-08-19T09:37:53;68.97;;;48.72;;
32295;SDS011;18781;51.550;5.418;2022-08-19T09:40:20;76.03;;;49.05;;
32295;SDS011;18781;51.550;5.418;2022-08-19T09:42:46;71.03;;;48.60;;
32295;SDS011;18781;51.550;5.418;2022-08-19T09:45:13;79.38;;;51.42;;
32295;SDS011;18781;51.550;5.418;2022-08-19T09:47:39;77.28;;;50.05;;
32295;SDS011;18781;51.550;5.418;2022-08-19T09:50:06;66.68;;;47.40;;
32295;SDS011;18781;51.550;5.418;2022-08-19T09:52:33;70.82;;;49.65;;
32295;SDS011;18781;51.550;5.418;2022-08-19T09:55:02;76.10;;;49.90;;
32295;SDS011;18781;51.550;5.418;2022-08-19T09:57:29;73.40;;;50.22;;
32295;SDS011;18781;51.550;5.418;2022-08-19T09:59:54;72.57;;;50.40;;
32295;SDS011;18781;51.550;5.418;2022-08-19T10:02:20;81.28;;;53.03;;
32295;SDS011;18781;51.550;5.418;2022-08-19T10:04:45;73.70;;;51.67;;
32295;SDS011;18781;51.550;5.418;2022-08-19T10:07:29;74.43;;;52.05;;
32295;SDS011;18781;51.550;5.418;2022-08-19T10:09:55;78.40;;;51.60;;
32295;SDS011;18781;51.550;5.418;2022-08-19T10:12:21;79.00;;;53.50;;
32295;SDS011;18781;51.550;5.418;2022-08-19T10:14:47;78.05;;;53.28;;
32295;SDS011;18781;51.550;5.418;2022-08-19T10:17:13;75.72;;;50.75;;
32295;SDS011;18781;51.550;5.418;2022-08-19T10:19:39;78.30;;;52.33;;
32295;SDS011;18781;51.550;5.418;2022-08-19T10:22:06;79.15;;;53.30;;
32295;SDS011;18781;51.550;5.418;2022-08-19T10:24:32;76.18;;;50.58;;
32295;SDS011;18781;51.550;5.418;2022-08-19T10:26:59;75.13;;;50.73;;
32295;SDS011;18781;51.550;5.418;2022-08-19T10:29:28;71.22;;;50.85;;
32295;SDS011;18781;51.550;5.418;2022-08-19T10:31:55;76.68;;;51.30;;
32295;SDS011;18781;51.550;5.418;2022-08-19T10:34:23;78.18;;;52.40;;
32295;SDS011;18781;51.550;5.418;2022-08-19T10:36:49;68.70;;;49.80;;
32295;SDS011;18781;51.550;5.418;2022-08-19T10:39:16;72.68;;;49.65;;
32295;SDS011;18781;51.550;5.418;2022-08-19T10:41:41;72.25;;;49.88;;
32295;SDS011;18781;51.550;5.418;2022-08-19T10:44:12;74.05;;;49.47;;
32295;SDS011;18781;51.550;5.418;2022-08-19T10:46:39;65.72;;;46.75;;
32295;SDS011;18781;51.550;5.418;2022-08-19T10:49:07;70.63;;;47.80;;
32295;SDS011;18781;51.550;5.418;2022-08-19T10:51:34;64.93;;;45.75;;
32295;SDS011;18781;51.550;5.418;2022-08-19T10:54:18;64.63;;;46.80;;
32295;SDS011;18781;51.550;5.418;2022-08-19T10:56:44;66.00;;;46.75;;
32295;SDS011;18781;51.550;5.418;2022-08-19T10:59:17;67.55;;;45.28;;
32295;SDS011;18781;51.550;5.418;2022-08-19T11:01:43;72.28;;;46.40;;
32295;SDS011;18781;51.550;5.418;2022-08-19T11:04:09;66.53;;;46.22;;
32295;SDS011;18781;51.550;5.418;2022-08-19T11:06:36;63.75;;;45.15;;
32295;SDS011;18781;51.550;5.418;2022-08-19T11:09:03;70.47;;;46.45;;
32295;SDS011;18781;51.550;5.418;2022-08-19T11:11:30;67.97;;;45.28;;
32295;SDS011;18781;51.550;5.418;2022-08-19T11:13:57;62.05;;;43.65;;
32295;SDS011;18781;51.550;5.418;2022-08-19T11:16:24;60.35;;;41.35;;
32295;SDS011;18781;51.550;5.418;2022-08-19T11:18:52;61.47;;;42.33;;
32295;SDS011;18781;51.550;5.418;2022-08-19T11:21:20;61.75;;;42.33;;
32295;SDS011;18781;51.550;5.418;2022-08-19T11:23:48;57.42;;;40.75;;
32295;SDS011;18781;51.550;5.418;2022-08-19T11:26:16;59.97;;;42.28;;
32295;SDS011;18781;51.550;5.418;2022-08-19T11:28:43;59.63;;;41.88;;
32295;SDS011;18781;51.550;5.418;2022-08-19T11:31:10;67.07;;;44.22;;
32295;SDS011;18781;51.550;5.418;2022-08-19T11:33:38;66.40;;;46.08;;
32295;SDS011;18781;51.550;5.418;2022-08-19T11:36:04;64.90;;;45.22;;
32295;SDS011;18781;51.550;5.418;2022-08-19T11:38:30;68.53;;;47.33;;
32295;SDS011;18781;51.550;5.418;2022-08-19T11:40:56;57.92;;;43.25;;
32295;SDS011;18781;51.550;5.418;2022-08-19T11:43:23;56.00;;;41.45;;
32295;SDS011;18781;51.550;5.418;2022-08-19T11:45:51;51.63;;;38.03;;
32295;SDS011;18781;51.550;5.418;2022-08-19T11:48:18;54.90;;;38.95;;
32295;SDS011;18781;51.550;5.418;2022-08-19T11:50:47;49.60;;;36.40;;
32295;SDS011;18781;51.550;5.418;2022-08-19T11:53:14;45.90;;;34.65;;
32295;SDS011;18781;51.550;5.418;2022-08-19T11:55:40;47.88;;;33.90;;
32295;SDS011;18781;51.550;5.418;2022-08-19T11:58:07;46.05;;;34.20;;
32295;SDS011;18781;51.550;5.418;2022-08-19T12:00:33;48.72;;;35.55;;
32295;SDS011;18781;51.550;5.418;2022-08-19T12:03:01;47.92;;;33.38;;
32295;SDS011;18781;51.550;5.418;2022-08-19T12:05:27;44.53;;;33.25;;
32295;SDS011;18781;51.550;5.418;2022-08-19T12:07:52;45.13;;;33.08;;
32295;SDS011;18781;51.550;5.418;2022-08-19T12:10:19;48.78;;;33.83;;
32295;SDS011;18781;51.550;5.418;2022-08-19T12:12:45;47.38;;;34.90;;
32295;SDS011;18781;51.550;5.418;2022-08-19T12:15:12;45.83;;;35.08;;
32295;SDS011;18781;51.550;5.418;2022-08-19T12:17:39;48.50;;;36.05;;
32295;SDS011;18781;51.550;5.418;2022-08-19T12:20:06;54.78;;;38.42;;
32295;SDS011;18781;51.550;5.418;2022-08-19T12:22:34;50.35;;;38.10;;
32295;SDS011;18781;51.550;5.418;2022-08-19T12:25:00;57.15;;;39.70;;
32295;SDS011;18781;51.550;5.418;2022-08-19T12:27:26;58.15;;;40.97;;
32295;SDS011;18781;51.550;5.418;2022-08-19T12:29:51;59.78;;;41.92;;
32295;SDS011;18781;51.550;5.418;2022-08-19T12:32:17;56.75;;;42.25;;
32295;SDS011;18781;51.550;5.418;2022-08-19T12:34:43;58.42;;;42.22;;
32295;SDS011;18781;51.550;5.418;2022-08-19T12:37:09;53.00;;;39.67;;
32295;SDS011;18781;51.550;5.418;2022-08-19T12:39:36;49.40;;;39.95;;
32295;SDS011;18781;51.550;5.418;2022-08-19T12:42:04;52.58;;;39.53;;
32295;SDS011;18781;51.550;5.418;2022-08-19T12:44:30;52.40;;;38.28;;
32295;SDS011;18781;51.550;5.418;2022-08-19T12:46:57;52.40;;;38.95;;
32295;SDS011;18781;51.550;5.418;2022-08-19T12:49:23;47.88;;;36.03;;
32295;SDS011;18781;51.550;5.418;2022-08-19T12:51:49;44.80;;;34.58;;
32295;SDS011;18781;51.550;5.418;2022-08-19T12:54:15;43.67;;;33.88;;
32295;SDS011;18781;51.550;5.418;2022-08-19T12:56:40;45.95;;;33.42;;
32295;SDS011;18781;51.550;5.418;2022-08-19T12:59:08;45.92;;;34.05;;
32295;SDS011;18781;51.550;5.418;2022-08-19T13:01:36;44.88;;;32.70;;
32295;SDS011;18781;51.550;5.418;2022-08-19T13:04:02;45.05;;;33.53;;
32295;SDS011;18781;51.550;5.418;2022-08-19T13:06:28;45.70;;;34.40;;
32295;SDS011;18781;51.550;5.418;2022-08-19T13:08:54;43.00;;;32.33;;
32295;SDS011;18781;51.550;5.418;2022-08-19T13:11:20;45.35;;;32.80;;
32295;SDS011;18781;51.550;5.418;2022-08-19T13:13:49;46.50;;;33.67;;
32295;SDS011;18781;51.550;5.418;2022-08-19T13:16:16;48.08;;;34.80;;
32295;SDS011;18781;51.550;5.418;2022-08-19T13:18:44;46.53;;;34.83;;
32295;SDS011;18781;51.550;5.418;2022-08-19T13:21:12;47.88;;;34.50;;
32295;SDS011;18781;51.550;5.418;2022-08-19T13:23:38;46.83;;;33.38;;
32295;SDS011;18781;51.550;5.418;2022-08-19T13:26:05;44.35;;;31.13;;
32295;SDS011;18781;51.550;5.418;2022-08-19T13:28:33;43.10;;;30.58;;
32295;SDS011;18781;51.550;5.418;2022-08-19T13:31:18;41.47;;;29.52;;
32295;SDS011;18781;51.550;5.418;2022-08-19T13:34:05;40.80;;;29.15;;
32295;SDS011;18781;51.550;5.418;2022-08-19T13:36:31;38.47;;;28.17;;
32295;SDS011;18781;51.550;5.418;2022-08-19T13:38:57;35.55;;;27.10;;
32295;SDS011;18781;51.550;5.418;2022-08-19T13:41:23;37.10;;;26.98;;
32295;SDS011;18781;51.550;5.418;2022-08-19T13:43:49;36.20;;;26.30;;
32295;SDS011;18781;51.550;5.418;2022-08-19T13:46:15;33.55;;;25.70;;
32295;SDS011;18781;51.550;5.418;2022-08-19T13:48:41;30.27;;;23.10;;
32295;SDS011;18781;51.550;5.418;2022-08-19T13:51:07;34.58;;;23.13;;
32295;SDS011;18781;51.550;5.418;2022-08-19T13:53:37;31.60;;;22.35;;
32295;SDS011;18781;51.550;5.418;2022-08-19T13:56:06;28.85;;;21.10;;
32295;SDS011;18781;51.550;5.418;2022-08-19T13:58:34;29.98;;;20.90;;
32295;SDS011;18781;51.550;5.418;2022-08-19T14:00:59;46.38;;;23.85;;
32295;SDS011;18781;51.550;5.418;2022-08-19T14:03:25;31.25;;;22.85;;
32295;SDS011;18781;51.550;5.418;2022-08-19T14:05:52;32.95;;;23.50;;
32295;SDS011;18781;51.550;5.418;2022-08-19T14:08:18;34.75;;;23.83;;
32295;SDS011;18781;51.550;5.418;2022-08-19T14:10:44;37.15;;;24.15;;
32295;SDS011;18781;51.550;5.418;2022-08-19T14:13:12;29.17;;;22.77;;
32295;SDS011;18781;51.550;5.418;2022-08-19T14:15:39;31.25;;;24.65;;
32295;SDS011;18781;51.550;5.418;2022-08-19T14:18:05;34.30;;;23.95;;
32295;SDS011;18781;51.550;5.418;2022-08-19T14:20:33;30.10;;;23.58;;
32295;SDS011;18781;51.550;5.418;2022-08-19T14:22:59;33.10;;;23.00;;
32295;SDS011;18781;51.550;5.418;2022-08-19T14:25:26;29.33;;;22.13;;
32295;SDS011;18781;51.550;5.418;2022-08-19T14:27:54;24.92;;;19.10;;
32295;SDS011;18781;51.550;5.418;2022-08-19T14:30:24;24.17;;;19.02;;
32295;SDS011;18781;51.550;5.418;2022-08-19T14:32:53;17.67;;;14.73;;
32295;SDS011;18781;51.550;5.418;2022-08-19T14:35:19;19.50;;;14.73;;